Terminal Aerodrome Forecast
Issued by NWS Albany, NY

Home | Current Version | Previous Version | Text Only | Print | Product List | Glossary On
Versions: 1 2 3 4 5 6 7 8 9 10 11 12 13 14 15 16
000
FTUS41 KALY 291721
TAFPOU
TAF
KPOU 291721Z 2918/3018 23004KT P6SM FEW060 SCT250
     FM300100 VRB03KT P6SM FEW250
     FM300800 VRB02KT 5SM BR BKN015 BKN250
     FM301400 21006KT P6SM BKN040=

USA.gov is the U.S. government's official web portal to all federal, state and local government web resources and services.